Time;durP1;ratioP1;P1;durP2;ratioP2;P2;SDS_P1;SDS_P2;PMS_P1;PMS_P2;Temp;Humidity;BMP_temperature;BMP_pressure;BME280_temperature;BME280_humidity;BME280_pressure;Samples;Min_cycle;Max_cycle;Signal;HPM_P1;HPM_P2
2022/06/28 04:01:48;;;;;;;29.07;22.90;;;15.70;96.30;;;;;;5387397;22;20917;-80
2022/06/28 04:04:13;;;;;;;30.17;23.13;;;15.70;96.30;;;;;;4993820;28;20409;-80
2022/06/28 04:06:39;;;;;;;31.80;25.43;;;15.70;96.30;;;;;;4993790;28;20180;-79
2022/06/28 04:09:04;;;;;;;29.97;24.67;;;15.80;96.30;;;;;;4975678;28;20209;-79
2022/06/28 04:11:30;;;;;;;37.00;27.03;;;15.80;96.30;;;;;;4976138;28;20193;-79
2022/06/28 04:13:55;;;;;;;30.37;24.80;;;15.80;96.30;;;;;;4975573;28;20174;-78
2022/06/28 04:16:22;;;;;;;34.47;24.97;;;15.80;96.30;;;;;;4993201;28;20173;-76
2022/06/28 04:18:49;;;;;;;40.80;27.57;;;15.80;96.30;;;;;;4991763;28;20672;-77
2022/06/28 04:31:36;;;;;;;36.13;23.20;;;15.90;96.30;;;;;;5050435;23;20507;-77
2022/06/28 04:34:02;;;;;;;29.47;26.10;;;15.80;96.30;;;;;;4974759;28;20928;-77
2022/06/28 04:36:28;;;;;;;26.80;23.30;;;15.80;96.30;;;;;;4974817;28;20169;-77
2022/06/28 04:38:54;;;;;;;30.00;24.63;;;15.80;96.30;;;;;;4974023;28;20417;-76
2022/06/28 04:41:24;;;;;;;30.13;25.60;;;15.80;96.30;;;;;;4984451;28;20198;-77
2022/06/28 04:43:50;;;;;;;34.10;27.57;;;15.80;96.30;;;;;;4972893;28;20753;-77
2022/06/28 04:46:16;;;;;;;35.10;27.90;;;15.80;96.30;;;;;;4972731;28;20909;-78
2022/06/28 04:48:41;;;;;;;32.70;27.80;;;15.90;96.30;;;;;;4970540;28;20453;-76
2022/06/28 04:51:13;;;;;;;36.00;28.67;;;16.00;96.30;;;;;;4971367;28;20261;-76
2022/06/28 04:53:43;;;;;;;30.67;26.57;;;16.00;96.30;;;;;;4972662;28;20250;-76
2022/06/28 04:56:11;;;;;;;36.80;27.67;;;16.00;96.30;;;;;;4973568;28;20406;-76
2022/06/28 04:58:36;;;;;;;41.00;29.30;;;16.10;96.30;;;;;;4975432;28;20413;-76
2022/06/28 05:01:02;;;;;;;39.07;29.90;;;16.10;96.30;;;;;;4975732;28;20523;-76
2022/06/28 05:03:28;;;;;;;38.30;29.73;;;16.10;96.30;;;;;;4975924;28;20698;-76
2022/06/28 05:05:55;;;;;;;38.63;29.60;;;16.20;96.30;;;;;;4975827;28;20171;-76
2022/06/28 05:08:20;;;;;;;38.83;29.53;;;16.10;96.30;;;;;;4975191;28;20520;-76
2022/06/28 05:10:46;;;;;;;38.17;30.13;;;16.10;96.30;;;;;;4975638;28;20438;-77
2022/06/28 05:13:12;;;;;;;39.87;31.97;;;16.10;96.30;;;;;;4975775;28;20704;-76
2022/06/28 05:15:37;;;;;;;36.20;30.43;;;16.10;96.30;;;;;;4975857;28;20174;-76
2022/06/28 05:18:03;;;;;;;37.13;30.23;;;16.10;96.30;;;;;;4975280;28;20178;-75
2022/06/28 05:20:28;;;;;;;38.77;30.60;;;16.10;96.30;;;;;;4975540;28;20646;-76
2022/06/28 05:22:54;;;;;;;38.47;31.47;;;16.10;96.30;;;;;;4975690;28;20189;-75
2022/06/28 05:25:19;;;;;;;39.33;30.87;;;16.10;96.30;;;;;;4975488;28;20198;-75
2022/06/28 05:27:45;;;;;;;40.00;29.77;;;16.10;96.30;;;;;;4974832;28;20637;-75
2022/06/28 05:30:11;;;;;;;41.60;28.97;;;16.10;96.30;;;;;;4958009;28;20233;-75
2022/06/28 05:32:37;;;;;;;37.30;30.60;;;16.10;96.30;;;;;;4975294;28;20175;-75
2022/06/28 05:35:03;;;;;;;34.43;29.47;;;16.10;96.30;;;;;;4987386;28;20604;-75
2022/06/28 05:37:29;;;;;;;35.80;27.20;;;16.00;96.30;;;;;;4992020;28;20432;-76
2022/06/28 05:39:54;;;;;;;34.23;28.60;;;16.00;96.30;;;;;;4991706;28;20417;-75
2022/06/28 05:42:20;;;;;;;36.50;26.60;;;16.00;96.30;;;;;;4993081;28;20193;-75
2022/06/28 05:44:45;;;;;;;33.10;26.27;;;16.00;96.30;;;;;;4993286;28;20719;-75
2022/06/28 05:47:11;;;;;;;37.43;27.97;;;16.00;96.30;;;;;;4995106;28;20184;-73
2022/06/28 05:49:38;;;;;;;32.50;26.93;;;16.00;96.30;;;;;;4993333;28;20202;-73
2022/06/28 05:52:04;;;;;;;30.47;26.47;;;16.00;96.30;;;;;;4994678;28;20214;-73
2022/06/28 05:54:30;;;;;;;32.93;26.20;;;16.00;96.30;;;;;;4968145;28;20504;-74
2022/06/28 05:56:55;;;;;;;33.67;27.47;;;16.00;96.30;;;;;;4984176;28;20940;-74
2022/06/28 05:59:21;;;;;;;30.80;24.63;;;16.00;96.30;;;;;;4989787;28;20183;-73
2022/06/28 06:01:48;;;;;;;34.40;25.70;;;16.00;96.30;;;;;;4990975;28;20197;-74
2022/06/28 06:04:13;;;;;;;35.77;27.43;;;16.10;96.30;;;;;;4989404;28;20187;-75
2022/06/28 06:06:39;;;;;;;31.50;23.70;;;16.10;96.30;;;;;;4987299;28;20440;-75
2022/06/28 06:09:04;;;;;;;28.10;21.50;;;16.20;96.30;;;;;;4977460;28;20244;-74
2022/06/28 06:11:30;;;;;;;25.10;21.40;;;16.20;96.30;;;;;;4971194;28;20565;-75
2022/06/28 06:13:56;;;;;;;24.83;19.83;;;16.30;96.30;;;;;;4989674;28;20170;-74
2022/06/28 06:16:21;;;;;;;34.00;21.60;;;16.30;96.30;;;;;;4988751;28;20173;-74
2022/06/28 06:18:47;;;;;;;26.77;20.00;;;16.20;96.30;;;;;;4989184;28;20641;-74
2022/06/28 06:21:12;;;;;;;25.07;20.07;;;16.10;96.30;;;;;;4988836;28;20663;-74
2022/06/28 06:23:38;;;;;;;26.17;21.07;;;16.10;96.30;;;;;;4989201;28;20276;-74
2022/06/28 06:26:03;;;;;;;24.63;21.40;;;16.10;96.30;;;;;;4988987;28;20260;-74
2022/06/28 06:28:30;;;;;;;26.27;21.70;;;16.00;96.30;;;;;;4988412;28;20240;-75
2022/06/28 06:30:55;;;;;;;27.33;22.70;;;16.00;96.30;;;;;;4989336;28;20241;-74
2022/06/28 06:33:21;;;;;;;22.53;20.13;;;16.10;96.30;;;;;;4987521;28;20465;-75
2022/06/28 06:35:46;;;;;;;26.03;21.37;;;16.20;96.30;;;;;;4989061;28;20177;-75
2022/06/28 06:38:12;;;;;;;24.67;21.60;;;16.50;96.30;;;;;;4988295;28;20201;-74
2022/06/28 06:40:38;;;;;;;26.70;21.70;;;16.60;96.30;;;;;;4989808;28;20316;-74
2022/06/28 06:43:04;;;;;;;24.47;20.13;;;16.80;96.30;;;;;;4965512;28;20319;-74
2022/06/28 06:45:30;;;;;;;27.20;21.87;;;17.20;96.30;;;;;;4988089;28;20511;-74
2022/06/28 06:47:56;;;;;;;23.87;19.87;;;17.70;96.30;;;;;;4984199;28;20823;-76
2022/06/28 06:50:22;;;;;;;29.97;18.20;;;19.00;96.30;;;;;;4989722;28;20184;-76
2022/06/28 06:52:48;;;;;;;18.63;16.73;;;19.60;96.30;;;;;;4988424;28;20190;-76
2022/06/28 06:55:14;;;;;;;19.33;14.93;;;19.60;96.30;;;;;;4988152;28;20431;-76
2022/06/28 06:57:39;;;;;;;17.10;13.93;;;19.60;96.30;;;;;;4989143;28;20499;-76
2022/06/28 07:00:06;;;;;;;17.00;14.70;;;19.40;96.30;;;;;;4989536;28;20428;-76
2022/06/28 07:02:38;;;;;;;17.37;15.47;;;19.50;96.30;;;;;;4988892;28;20926;-76
2022/06/28 07:05:04;;;;;;;18.70;14.97;;;20.80;96.30;;;;;;4988390;28;20441;-76
2022/06/28 07:07:30;;;;;;;19.17;14.27;;;22.40;96.30;;;;;;4989402;28;21126;-76
2022/06/28 07:09:56;;;;;;;14.50;12.97;;;23.70;96.30;;;;;;4989626;28;20457;-77
2022/06/28 07:12:22;;;;;;;13.90;12.73;;;24.50;96.30;;;;;;4990691;28;20202;-77
2022/06/28 07:14:47;;;;;;;16.23;12.30;;;25.30;96.30;;;;;;4963791;28;20454;-77
2022/06/28 07:17:13;;;;;;;14.17;12.20;;;25.40;96.30;;;;;;4968235;28;20621;-77
2022/06/28 07:19:38;;;;;;;17.83;10.77;;;25.10;96.30;;;;;;4988018;28;20245;-77
2022/06/28 07:22:04;;;;;;;11.80;10.20;;;26.30;96.30;;;;;;4989756;28;20716;-77
2022/06/28 07:24:29;;;;;;;12.00;10.90;;;26.70;96.30;;;;;;4988951;28;20181;-77
2022/06/28 07:26:55;;;;;;;12.67;10.37;;;27.10;96.30;;;;;;4964109;28;20263;-77
2022/06/28 07:29:20;;;;;;;15.17;10.90;;;26.80;96.30;;;;;;4986193;28;20208;-77
2022/06/28 07:31:46;;;;;;;11.73;10.53;;;26.80;96.30;;;;;;4989344;28;20200;-77
2022/06/28 07:34:11;;;;;;;11.60;10.40;;;27.30;95.80;;;;;;4989494;28;20173;-77
2022/06/28 07:36:38;;;;;;;12.47;9.83;;;27.20;96.30;;;;;;4989455;28;20583;-77
2022/06/28 07:39:04;;;;;;;14.93;10.50;;;27.10;96.30;;;;;;4987924;28;20259;-77
2022/06/28 07:41:30;;;;;;;10.83;9.73;;;27.00;94.30;;;;;;4986749;28;20443;-77
2022/06/28 07:43:55;;;;;;;13.40;8.90;;;27.00;95.20;;;;;;4988192;28;20192;-77
2022/06/28 07:46:22;;;;;;;9.17;8.10;;;27.10;94.00;;;;;;4986882;28;20443;-77
2022/06/28 07:48:50;;;;;;;15.77;7.90;;;27.20;93.80;;;;;;4985892;28;20208;-77
2022/06/28 07:54:01;;;;;;;8.17;7.33;;;28.20;93.10;;;;;;4987795;28;20515;-77
2022/06/28 07:56:27;;;;;;;10.43;7.47;;;28.90;90.60;;;;;;4986960;28;20422;-75
2022/06/28 07:58:52;;;;;;;9.10;6.97;;;28.70;86.00;;;;;;4987794;28;20416;-76
2022/06/28 08:01:19;;;;;;;6.80;6.20;;;28.40;93.10;;;;;;4986747;28;20201;-76
2022/06/28 08:03:44;;;;;;;12.33;6.33;;;29.10;90.50;;;;;;4988050;28;20606;-76
2022/06/28 08:06:10;;;;;;;9.00;6.10;;;29.30;87.00;;;;;;4987376;28;20511;-76
2022/06/28 08:08:35;;;;;;;7.40;5.60;;;29.40;90.40;;;;;;4986919;28;20320;-76
2022/06/28 08:11:01;;;;;;;6.67;6.07;;;29.70;85.90;;;;;;4986754;28;20676;-76
2022/06/28 08:13:27;;;;;;;8.27;5.77;;;28.70;85.00;;;;;;4987806;28;20641;-76
2022/06/28 08:15:52;;;;;;;5.00;4.53;;;28.50;88.50;;;;;;4986989;28;20169;-76
2022/06/28 08:18:18;;;;;;;5.80;5.30;;;28.60;88.00;;;;;;4987246;28;20222;-76
2022/06/28 08:20:44;;;;;;;7.13;5.43;;;28.20;85.60;;;;;;4988030;28;20193;-76
2022/06/28 08:23:09;;;;;;;6.90;5.80;;;28.40;86.90;;;;;;4974933;28;20205;-76
2022/06/28 08:25:36;;;;;;;6.70;5.13;;;28.30;88.80;;;;;;4989852;28;20192;-76
2022/06/28 08:28:01;;;;;;;6.20;5.60;;;28.70;88.20;;;;;;4991208;28;20560;-76
2022/06/28 08:30:27;;;;;;;5.87;5.00;;;28.50;88.60;;;;;;4993950;28;20435;-76
2022/06/28 08:32:53;;;;;;;5.27;4.47;;;28.80;88.60;;;;;;4995242;28;20200;-76
2022/06/28 08:35:20;;;;;;;5.33;4.37;;;29.60;82.00;;;;;;4995160;28;20212;-76
2022/06/28 08:37:45;;;;;;;9.20;6.33;;;29.90;82.30;;;;;;4995268;28;20431;-76
2022/06/28 08:40:11;;;;;;;5.97;4.70;;;29.20;85.40;;;;;;4995472;28;20424;-76
2022/06/28 08:42:46;;;;;;;6.13;4.83;;;28.30;83.00;;;;;;4977776;28;20284;-75
2022/06/28 08:45:12;;;;;;;5.40;4.90;;;26.70;87.80;;;;;;4995162;28;20175;-75
2022/06/28 08:47:39;;;;;;;5.57;4.60;;;26.50;91.40;;;;;;4995111;28;20404;-75
2022/06/28 08:50:10;;;;;;;5.40;4.90;;;26.90;91.60;;;;;;4995368;28;20412;-76
2022/06/28 08:52:36;;;;;;;5.57;4.43;;;27.20;90.70;;;;;;4995625;28;21025;-75
2022/06/28 08:55:06;;;;;;;8.73;4.43;;;26.90;90.00;;;;;;4995305;28;20432;-75
2022/06/28 08:57:32;;;;;;;7.00;4.57;;;26.70;96.30;;;;;;4996870;28;20213;-76
2022/06/28 08:59:59;;;;;;;6.73;4.40;;;27.90;89.50;;;;;;5001207;28;20432;-76
2022/06/28 09:02:25;;;;;;;6.97;4.90;;;28.60;88.30;;;;;;4994774;28;20447;-76
2022/06/28 09:04:53;;;;;;;4.87;4.47;;;28.10;85.70;;;;;;4995185;28;20428;-76
2022/06/28 09:07:20;;;;;;;8.40;4.43;;;26.40;88.40;;;;;;4995199;28;20169;-76
2022/06/28 09:09:46;;;;;;;5.20;4.03;;;25.30;94.20;;;;;;4994878;28;20460;-76
2022/06/28 09:12:11;;;;;;;5.83;4.77;;;25.80;92.80;;;;;;4994977;28;20479;-76
2022/06/28 09:14:37;;;;;;;6.70;4.90;;;25.50;93.60;;;;;;4995189;28;20196;-76
2022/06/28 09:17:21;;;;;;;4.77;4.37;;;25.00;93.80;;;;;;4980836;28;20206;-76
2022/06/28 09:19:48;;;;;;;6.90;4.40;;;24.30;96.30;;;;;;4978029;28;20722;-76
2022/06/28 09:22:41;;;;;;;8.00;4.37;;;24.00;96.30;;;;;;4984303;28;20475;-76
2022/06/28 09:25:23;;;;;;;4.80;4.13;;;23.50;96.30;;;;;;4977599;28;20425;-76
2022/06/28 09:27:48;;;;;;;5.70;4.30;;;23.80;96.30;;;;;;4978982;28;20458;-76
2022/06/28 09:30:14;;;;;;;5.47;4.33;;;24.70;96.30;;;;;;4960377;28;20861;-76
2022/06/28 09:32:40;;;;;;;8.97;4.10;;;25.70;96.30;;;;;;4983887;28;20189;-76
2022/06/28 09:35:11;;;;;;;4.87;4.27;;;25.90;95.50;;;;;;4991389;28;20267;-76
2022/06/28 09:37:48;;;;;;;4.50;3.53;;;25.70;95.50;;;;;;4982267;28;20424;-76
2022/06/28 09:40:19;;;;;;;4.40;4.10;;;25.80;92.10;;;;;;4993957;28;20547;-77
2022/06/28 09:42:47;;;;;;;6.10;3.27;;;25.30;91.80;;;;;;4992448;28;20408;-77
2022/06/28 09:45:16;;;;;;;7.83;2.60;;;24.30;93.40;;;;;;4979023;28;20541;-76
2022/06/28 09:47:47;;;;;;;3.90;3.10;;;23.50;93.10;;;;;;4993538;28;20456;-76
2022/06/28 09:50:19;;;;;;;3.43;2.70;;;23.80;96.30;;;;;;4994343;28;20928;-76
2022/06/28 09:52:45;;;;;;;7.13;3.20;;;25.10;95.20;;;;;;4994222;28;20936;-76
2022/06/28 09:55:13;;;;;;;7.43;3.07;;;26.10;96.30;;;;;;4994154;28;20413;-76
2022/06/28 09:57:39;;;;;;;7.33;3.03;;;26.50;92.40;;;;;;4994046;28;20218;-76
2022/06/28 10:00:05;;;;;;;6.17;2.50;;;27.40;88.20;;;;;;4993645;28;20448;-76
2022/06/28 10:02:31;;;;;;;4.37;3.00;;;26.40;86.30;;;;;;4993913;28;20197;-76
2022/06/28 10:05:00;;;;;;;3.37;3.00;;;25.50;91.00;;;;;;4993970;28;20431;-76
2022/06/28 10:07:34;;;;;;;12.13;3.07;;;24.60;91.80;;;;;;4994049;28;20405;-76
2022/06/28 10:10:00;;;;;;;4.83;2.97;;;24.90;96.30;;;;;;4994298;28;20419;-76
2022/06/28 10:15:17;;;;;;;3.10;2.70;;;25.60;88.60;;;;;;4994349;28;20412;-78
2022/06/28 10:17:52;;;;;;;4.10;2.67;;;24.90;91.50;;;;;;4993045;28;20432;-78
2022/06/28 10:20:31;;;;;;;2.70;2.50;;;24.30;95.10;;;;;;4993686;28;20514;-77
2022/06/28 10:23:25;;;;;;;3.80;2.60;;;24.80;90.90;;;;;;4993990;28;20459;-77
2022/06/28 10:26:06;;;;;;;5.27;2.60;;;25.20;89.30;;;;;;4994053;28;20506;-77
2022/06/28 10:28:39;;;;;;;2.87;2.67;;;25.70;89.90;;;;;;4993415;28;20448;-77
2022/06/28 10:31:33;;;;;;;3.17;2.63;;;24.90;91.80;;;;;;4988095;28;20465;-78
2022/06/28 10:34:01;;;;;;;3.50;2.73;;;24.70;89.80;;;;;;4977730;28;20436;-78
2022/06/28 10:36:31;;;;;;;4.57;3.20;;;24.60;95.80;;;;;;4960258;28;20440;-78
2022/06/28 10:39:09;;;;;;;6.37;3.50;;;25.20;91.30;;;;;;4991086;28;20420;-77
2022/06/28 10:41:42;;;;;;;4.40;3.40;;;25.80;91.50;;;;;;4980417;28;20550;-78
2022/06/28 10:44:11;;;;;;;2.83;2.63;;;26.60;87.10;;;;;;4993565;28;20411;-78
2022/06/28 10:46:37;;;;;;;3.47;3.13;;;27.00;87.00;;;;;;4993418;28;20415;-78
2022/06/28 10:49:11;;;;;;;2.67;2.47;;;27.70;85.60;;;;;;4993210;28;20463;-78
2022/06/28 10:51:41;;;;;;;4.43;2.60;;;27.00;78.30;;;;;;4993167;28;20201;-78
2022/06/28 10:54:10;;;;;;;3.43;2.70;;;26.60;81.00;;;;;;4993377;28;20767;-78
2022/06/28 10:56:37;;;;;;;3.20;2.90;;;26.00;82.80;;;;;;4975833;28;20522;-78
2022/06/28 10:59:08;;;;;;;4.70;2.63;;;24.90;83.80;;;;;;4993073;28;20420;-78
2022/06/28 11:01:39;;;;;;;3.43;2.80;;;25.30;86.40;;;;;;4993751;28;20452;-78
2022/06/28 11:04:31;;;;;;;3.10;2.77;;;25.70;91.40;;;;;;4993088;28;20506;-78
2022/06/28 11:07:19;;;;;;;2.60;2.30;;;25.30;83.80;;;;;;4989462;28;20429;-78
2022/06/28 11:09:47;;;;;;;13.47;2.93;;;24.90;84.50;;;;;;4993312;28;20463;-78
2022/06/28 11:12:22;;;;;;;4.00;3.00;;;24.80;85.00;;;;;;4994058;28;20811;-78
2022/06/28 11:14:59;;;;;;;2.90;2.70;;;25.00;85.60;;;;;;4993340;28;20416;-78
2022/06/28 11:17:32;;;;;;;4.10;3.33;;;24.90;82.80;;;;;;4993118;28;20415;-78
2022/06/28 11:20:01;;;;;;;9.67;4.30;;;25.40;87.80;;;;;;4993108;28;20456;-78
2022/06/28 11:22:43;;;;;;;5.37;4.70;;;25.60;84.80;;;;;;4993024;28;20462;-78
2022/06/28 11:25:12;;;;;;;4.73;4.17;;;24.70;84.10;;;;;;4992999;28;20523;-78
2022/06/28 11:28:04;;;;;;;4.70;4.10;;;23.70;86.10;;;;;;4992093;28;20456;-78
2022/06/28 11:30:29;;;;;;;4.30;4.00;;;24.50;87.40;;;;;;4989229;28;20449;-78
2022/06/28 11:32:57;;;;;;;6.23;4.23;;;24.00;85.60;;;;;;4992634;28;20420;-79
2022/06/28 11:35:30;;;;;;;7.97;4.17;;;24.40;87.80;;;;;;4992839;28;20177;-79
2022/06/28 11:37:57;;;;;;;4.73;4.33;;;25.00;83.60;;;;;;4986248;28;20424;-78
2022/06/28 11:40:41;;;;;;;10.30;5.20;;;25.20;84.30;;;;;;4975793;28;20853;-78
2022/06/28 11:43:09;;;;;;;5.53;5.03;;;25.60;85.00;;;;;;4958852;28;20425;-78
2022/06/28 11:45:43;;;;;;;5.07;4.67;;;25.60;81.60;;;;;;4991053;28;20425;-78
2022/06/28 11:48:11;;;;;;;4.60;4.20;;;26.20;85.30;;;;;;4977172;28;20455;-78
2022/06/28 12:11:32;;;;;;;5.10;4.60;;;25.80;80.50;;;;;;4977107;28;21024;-80
2022/06/28 12:14:17;;;;;;;5.97;4.20;;;26.10;80.40;;;;;;4978995;28;20405;-82
2022/06/28 12:16:45;;;;;;;6.83;4.23;;;25.80;79.50;;;;;;4978640;28;20455;-80
2022/06/28 12:19:32;;;;;;;5.77;4.17;;;25.30;79.10;;;;;;4970859;28;20932;-80
2022/06/28 12:22:07;;;;;;;6.30;5.00;;;26.30;78.70;;;;;;4972815;28;20828;-80
2022/06/28 12:24:57;;;;;;;6.20;4.47;;;27.60;80.20;;;;;;4960889;28;20432;-80
2022/06/28 12:27:26;;;;;;;7.20;4.37;;;27.90;74.90;;;;;;4960292;28;20448;-80
2022/06/28 12:29:53;;;;;;;4.87;4.37;;;26.40;74.10;;;;;;4958787;28;20463;-80
2022/06/28 12:32:20;;;;;;;4.67;4.27;;;26.80;77.00;;;;;;4976764;28;20470;-80
2022/06/28 12:34:45;;;;;;;4.60;4.23;;;27.20;78.80;;;;;;4959073;28;20908;-80
2022/06/28 12:37:12;;;;;;;4.20;3.90;;;27.20;76.80;;;;;;4976607;28;20405;-80
2022/06/28 12:39:38;;;;;;;5.73;4.53;;;27.80;75.30;;;;;;4975116;28;20201;-80
2022/06/28 12:42:05;;;;;;;7.00;4.00;;;27.90;74.40;;;;;;4958783;28;20507;-80
2022/06/28 12:44:31;;;;;;;7.43;3.60;;;27.20;75.70;;;;;;4976851;28;20249;-80
2022/06/28 12:46:57;;;;;;;4.80;3.63;;;27.20;72.80;;;;;;4990638;28;20432;-81
2022/06/28 12:49:23;;;;;;;4.97;3.80;;;26.70;75.80;;;;;;4995642;28;20947;-80
2022/06/28 12:51:49;;;;;;;4.60;3.57;;;26.80;73.10;;;;;;4996051;28;20669;-80
2022/06/28 12:54:15;;;;;;;5.00;4.20;;;26.20;74.40;;;;;;4991861;28;20414;-80
2022/06/28 12:56:41;;;;;;;5.80;4.57;;;27.00;77.00;;;;;;4976435;28;20456;-80
2022/06/28 12:59:07;;;;;;;5.10;4.60;;;26.10;76.60;;;;;;4975907;28;20840;-80
2022/06/28 13:01:33;;;;;;;4.80;4.40;;;26.30;78.40;;;;;;4978682;28;20232;-80
2022/06/28 13:03:59;;;;;;;9.70;4.90;;;25.80;80.00;;;;;;4977582;28;20422;-80
2022/06/28 13:06:24;;;;;;;7.90;5.10;;;25.10;79.00;;;;;;4980452;28;20174;-80
2022/06/28 13:08:50;;;;;;;6.87;5.00;;;24.90;80.70;;;;;;4979259;28;20746;-79
2022/06/28 13:11:16;;;;;;;11.37;4.77;;;25.40;80.20;;;;;;4961838;28;20217;-79
2022/06/28 13:13:42;;;;;;;4.70;4.30;;;25.40;79.10;;;;;;4978685;28;20170;-79
2022/06/28 13:16:08;;;;;;;6.40;4.17;;;25.40;79.20;;;;;;4978269;28;20477;-79
2022/06/28 13:18:33;;;;;;;4.50;4.10;;;26.10;76.10;;;;;;4979598;28;20170;-80
2022/06/28 13:20:59;;;;;;;4.43;4.07;;;26.60;75.70;;;;;;4963584;28;20197;-80
2022/06/28 13:23:25;;;;;;;4.87;4.47;;;25.80;77.50;;;;;;4980364;28;20182;-80
2022/06/28 13:25:52;;;;;;;4.63;4.23;;;26.40;80.00;;;;;;4981338;28;20428;-81
2022/06/28 13:28:18;;;;;;;5.40;4.20;;;27.50;80.00;;;;;;4983934;28;20460;-80
2022/06/28 13:30:44;;;;;;;9.30;4.00;;;27.90;78.80;;;;;;4982911;28;20441;-80
2022/06/28 13:33:11;;;;;;;7.10;4.60;;;28.30;76.10;;;;;;4981487;28;20256;-81
2022/06/28 13:35:38;;;;;;;5.40;4.10;;;27.40;75.40;;;;;;4974939;28;20209;-80
2022/06/28 13:38:04;;;;;;;7.00;4.77;;;26.80;74.90;;;;;;4974789;28;20417;-80
2022/06/28 13:40:30;;;;;;;6.83;4.20;;;25.60;77.20;;;;;;4974850;28;20420;-80
2022/06/28 13:42:55;;;;;;;5.17;4.73;;;25.60;77.00;;;;;;4974488;28;20417;-80
2022/06/28 13:45:21;;;;;;;7.27;4.40;;;25.20;78.00;;;;;;4957350;28;20822;-80
2022/06/28 13:47:47;;;;;;;9.27;5.13;;;25.30;80.50;;;;;;4974756;28;20228;-78
2022/06/28 13:50:13;;;;;;;8.10;5.20;;;25.30;79.10;;;;;;4975930;28;20190;-81
2022/06/28 13:52:42;;;;;;;7.67;5.50;;;25.40;79.20;;;;;;4974230;28;20281;-81
2022/06/28 13:55:09;;;;;;;8.17;4.90;;;25.70;79.50;;;;;;4974943;28;20920;-81
2022/06/28 13:57:35;;;;;;;5.83;4.60;;;25.90;79.50;;;;;;4957690;28;20421;-81
2022/06/28 14:00:03;;;;;;;5.33;4.83;;;26.20;79.10;;;;;;4953125;28;20424;-82
2022/06/28 14:02:28;;;;;;;8.83;4.47;;;25.90;78.00;;;;;;4975836;28;20641;-81
2022/06/28 14:04:53;;;;;;;5.60;3.97;;;26.40;80.20;;;;;;4975844;28;20417;-81
2022/06/28 14:07:19;;;;;;;4.27;3.87;;;26.40;80.40;;;;;;4976354;28;20194;-81
2022/06/28 14:09:44;;;;;;;4.80;4.40;;;26.90;80.00;;;;;;4968590;28;20820;-81
2022/06/28 14:12:10;;;;;;;6.90;4.10;;;27.20;78.40;;;;;;4975808;28;20193;-81
2022/06/28 14:14:36;;;;;;;8.93;4.07;;;26.10;80.00;;;;;;4963640;28;20174;-81
2022/06/28 14:17:02;;;;;;;4.10;3.70;;;25.80;80.20;;;;;;4974494;28;20817;-81
2022/06/28 14:19:28;;;;;;;4.27;3.87;;;25.80;79.50;;;;;;4973718;28;20181;-82
2022/06/28 14:21:54;;;;;;;4.90;4.00;;;25.70;77.60;;;;;;4960109;28;20250;-81
2022/06/28 14:24:21;;;;;;;6.33;4.20;;;25.00;77.40;;;;;;4975065;28;20177;-81
2022/06/28 14:26:47;;;;;;;5.47;4.40;;;25.10;77.80;;;;;;4975104;28;20460;-81
2022/06/28 14:29:12;;;;;;;4.53;3.50;;;25.50;83.20;;;;;;4974018;28;20449;-80
2022/06/28 14:31:38;;;;;;;5.43;4.00;;;26.00;78.00;;;;;;4957641;28;20284;-78
2022/06/28 14:34:03;;;;;;;12.70;4.20;;;25.90;76.30;;;;;;4975471;28;20174;-79
2022/06/28 14:36:29;;;;;;;4.60;4.20;;;25.40;77.70;;;;;;4975314;28;20177;-79
2022/06/28 14:38:54;;;;;;;3.60;3.30;;;25.40;77.40;;;;;;4975322;28;20177;-80
2022/06/28 14:41:20;;;;;;;7.90;3.83;;;25.40;77.10;;;;;;4975347;28;20193;-80
2022/06/28 14:43:46;;;;;;;5.63;3.77;;;25.40;78.00;;;;;;4975489;28;20166;-80
2022/06/28 14:46:11;;;;;;;4.00;3.50;;;25.70;80.60;;;;;;4975645;28;20421;-80
2022/06/28 14:48:37;;;;;;;4.93;3.57;;;26.60;80.40;;;;;;4976129;28;20197;-80
2022/06/28 14:51:03;;;;;;;4.13;3.73;;;27.00;78.00;;;;;;4971356;28;20236;-80
2022/06/28 14:53:28;;;;;;;8.27;3.80;;;26.80;74.00;;;;;;4939520;29;20175;-80
2022/06/28 14:55:54;;;;;;;8.20;3.67;;;26.60;77.90;;;;;;4941563;29;20494;-80
2022/06/28 14:58:21;;;;;;;4.47;3.57;;;26.80;75.30;;;;;;4958884;29;20244;-81
2022/06/28 15:00:47;;;;;;;7.30;4.17;;;26.60;75.30;;;;;;4939210;29;20202;-79
2022/06/28 15:03:13;;;;;;;3.83;3.50;;;25.70;75.90;;;;;;4956858;29;20420;-79
2022/06/28 15:05:39;;;;;;;4.63;3.67;;;25.70;79.00;;;;;;4964859;29;20158;-79
2022/06/28 15:08:07;;;;;;;5.67;3.80;;;26.20;77.10;;;;;;4961355;29;20279;-80
2022/06/28 15:10:33;;;;;;;3.77;3.47;;;25.70;75.30;;;;;;4956650;29;20198;-79
2022/06/28 15:12:58;;;;;;;3.63;2.90;;;25.50;75.90;;;;;;4937788;29;20433;-79
2022/06/28 15:15:24;;;;;;;4.13;3.73;;;25.40;76.50;;;;;;4954528;29;20754;-79
2022/06/28 15:17:49;;;;;;;3.97;3.57;;;25.10;77.40;;;;;;4954255;29;20186;-78
2022/06/28 15:20:15;;;;;;;4.40;3.57;;;24.70;77.30;;;;;;4954451;29;20257;-78
2022/06/28 15:30:53;;;;;;;4.90;3.43;;;26.50;74.40;;;;;;4954458;29;20794;-79
2022/06/28 15:33:24;;;;;;;4.17;3.00;;;26.20;72.90;;;;;;4954344;29;20414;-78
2022/06/28 15:35:54;;;;;;;3.20;2.90;;;25.70;74.50;;;;;;4954332;29;20167;-79
2022/06/28 15:38:20;;;;;;;3.50;3.20;;;26.20;76.30;;;;;;4936847;29;20444;-79
2022/06/28 15:40:46;;;;;;;4.70;3.37;;;26.60;73.60;;;;;;4936170;29;20808;-79
2022/06/28 15:43:11;;;;;;;3.73;3.43;;;26.40;72.90;;;;;;4954152;29;20418;-79
2022/06/28 15:45:37;;;;;;;5.07;3.40;;;25.80;73.50;;;;;;4954143;29;20225;-79
2022/06/28 15:48:03;;;;;;;5.30;3.30;;;25.90;75.10;;;;;;4953822;29;20244;-78
2022/06/28 15:50:28;;;;;;;3.20;2.90;;;25.50;74.70;;;;;;4954125;29;20177;-78
2022/06/28 15:52:54;;;;;;;3.87;2.73;;;25.90;74.30;;;;;;4954053;29;20249;-79
2022/06/28 15:55:21;;;;;;;3.20;2.90;;;26.40;76.70;;;;;;4954242;29;20202;-79
2022/06/28 15:57:49;;;;;;;5.23;3.30;;;26.30;73.40;;;;;;4953731;29;20410;-78
2022/06/28 16:00:15;;;;;;;10.17;3.30;;;26.20;74.30;;;;;;4953881;29;20175;-79
2022/06/28 16:02:43;;;;;;;3.30;3.00;;;25.90;74.60;;;;;;4953883;29;20945;-78
2022/06/28 16:05:10;;;;;;;3.83;3.13;;;26.00;76.10;;;;;;4953904;29;20409;-79
2022/06/28 16:07:35;;;;;;;5.67;2.97;;;26.40;74.20;;;;;;4953541;29;20414;-79
2022/06/28 16:10:02;;;;;;;5.37;3.30;;;26.00;76.30;;;;;;4936568;29;20470;-79
2022/06/28 16:15:12;;;;;;;3.60;3.10;;;26.50;73.20;;;;;;4954112;29;20505;-79
2022/06/28 16:17:38;;;;;;;11.10;3.07;;;26.10;75.30;;;;;;4953684;29;20489;-79
2022/06/28 16:20:04;;;;;;;3.97;3.67;;;25.60;76.50;;;;;;4953940;29;20183;-79
2022/06/28 16:22:29;;;;;;;4.40;3.27;;;25.10;77.80;;;;;;4953796;29;20194;-79
2022/06/28 16:24:55;;;;;;;3.80;3.37;;;25.30;79.20;;;;;;4953772;29;20504;-79
2022/06/28 16:27:20;;;;;;;4.27;3.00;;;25.00;79.00;;;;;;4936545;29;20198;-80
2022/06/28 16:29:46;;;;;;;5.60;3.20;;;24.90;78.80;;;;;;4953332;29;20194;-79
2022/06/28 16:32:11;;;;;;;3.90;3.50;;;25.10;80.30;;;;;;4953705;29;20198;-79
2022/06/28 16:34:37;;;;;;;4.73;2.80;;;25.10;77.50;;;;;;4953653;29;20253;-79
2022/06/28 16:37:02;;;;;;;2.60;2.40;;;25.10;78.40;;;;;;4953713;29;20770;-79
2022/06/28 16:39:29;;;;;;;3.93;3.17;;;25.40;77.50;;;;;;4953596;29;20178;-79
2022/06/28 16:41:55;;;;;;;6.20;3.20;;;25.20;78.10;;;;;;4953560;29;20232;-80
2022/06/28 16:44:20;;;;;;;2.93;2.70;;;24.80;78.20;;;;;;4953998;29;20907;-78
2022/06/28 16:46:46;;;;;;;4.47;2.77;;;24.70;77.70;;;;;;4953487;29;20182;-79
2022/06/28 16:49:11;;;;;;;2.83;2.40;;;24.70;77.20;;;;;;4953312;29;20262;-79
2022/06/28 16:51:37;;;;;;;3.03;2.73;;;24.80;78.00;;;;;;4955290;28;20195;-78
2022/06/28 16:54:03;;;;;;;3.57;3.23;;;24.80;76.90;;;;;;4957037;29;20540;-79
2022/06/28 16:56:28;;;;;;;3.30;3.00;;;24.60;78.20;;;;;;4957046;29;20171;-79
2022/06/28 16:58:54;;;;;;;8.87;3.47;;;24.90;78.40;;;;;;4939533;29;20179;-80
2022/06/28 17:01:19;;;;;;;3.23;2.73;;;25.00;81.90;;;;;;4956847;29;20194;-79
2022/06/28 17:03:45;;;;;;;4.27;2.90;;;24.80;81.40;;;;;;4939765;29;20743;-79
2022/06/28 17:08:54;;;;;;;3.87;2.73;;;24.50;80.10;;;;;;4956716;29;20286;-79
2022/06/28 17:11:20;;;;;;;3.33;3.03;;;24.20;80.80;;;;;;4956507;29;20474;-80
2022/06/28 17:13:45;;;;;;;2.97;2.77;;;24.00;82.50;;;;;;4939532;29;20179;-79
2022/06/28 17:16:11;;;;;;;3.30;3.00;;;24.20;84.10;;;;;;4956705;29;20179;-79
2022/06/28 17:18:36;;;;;;;4.80;3.20;;;24.30;83.00;;;;;;4939379;29;20265;-80
2022/06/28 17:21:02;;;;;;;4.27;3.30;;;24.30;85.00;;;;;;4956815;29;20557;-79
2022/06/28 17:23:27;;;;;;;4.60;3.33;;;24.30;83.70;;;;;;4958299;29;20250;-80
2022/06/28 17:25:53;;;;;;;3.67;3.37;;;24.00;81.60;;;;;;4958068;29;20258;-79
2022/06/28 17:28:19;;;;;;;5.40;3.23;;;23.60;83.10;;;;;;4939600;29;20211;-80
2022/06/28 17:30:44;;;;;;;3.40;3.10;;;23.70;83.40;;;;;;4956412;29;20195;-79
2022/06/28 17:33:09;;;;;;;6.80;3.40;;;23.90;83.30;;;;;;4956548;29;20182;-79